Time;durP1;ratioP1;P1;durP2;ratioP2;P2;SDS_P1;SDS_P2;PMS_P1;PMS_P2;Temp;Humidity;BMP_temperature;BMP_pressure;BME280_temperature;BME280_humidity;BME280_pressure;Samples;Min_cycle;Max_cycle;Signal;HPM_P1;HPM_P2
2020/12/04 00:01:35;;;;;;;14.17;10.30;;;;;;;-0.83;74.72;93150.91;5035007;28;20673;-76
2020/12/04 00:04:01;;;;;;;16.30;11.07;;;;;;;-0.75;74.53;93148.47;5051595;28;20296;-76
2020/12/04 00:06:26;;;;;;;15.27;10.53;;;;;;;-0.82;74.81;93132.91;5050647;28;20256;-76
2020/12/04 00:08:51;;;;;;;14.90;11.03;;;;;;;-0.89;75.04;93130.09;5034453;28;20631;-76
2020/12/04 00:11:20;;;;;;;14.43;10.27;;;;;;;-0.83;75.11;93136.41;5052446;28;20247;-76
2020/12/04 00:13:45;;;;;;;14.13;10.33;;;;;;;-0.87;75.32;93118.06;5061800;28;20228;-77
2020/12/04 00:16:11;;;;;;;14.80;10.20;;;;;;;-0.83;75.30;93110.94;5050775;28;20589;-77
2020/12/04 00:18:36;;;;;;;14.83;10.80;;;;;;;-0.78;75.53;93087.59;5051972;28;20192;-76
2020/12/04 00:21:01;;;;;;;14.43;10.30;;;;;;;-0.87;76.33;93092.59;5050650;28;20174;-77
2020/12/04 00:23:27;;;;;;;16.17;11.00;;;;;;;-0.79;76.39;93080.91;5050688;28;20691;-76
2020/12/04 00:25:52;;;;;;;15.10;10.53;;;;;;;-0.86;77.23;93084.00;5048525;28;20591;-76
2020/12/04 00:28:17;;;;;;;14.27;10.03;;;;;;;-0.86;77.06;93071.25;5051889;28;20196;-76
2020/12/04 00:30:42;;;;;;;18.97;11.53;;;;;;;-0.86;77.01;93070.44;5050372;28;20204;-76
2020/12/04 00:33:08;;;;;;;18.00;11.43;;;;;;;-0.85;76.42;93061.84;5050695;28;20251;-76
2020/12/04 00:35:33;;;;;;;13.90;10.03;;;;;;;-0.87;76.13;93072.19;5032705;28;20234;-76
2020/12/04 00:37:58;;;;;;;14.60;10.37;;;;;;;-0.88;76.28;93064.69;5033229;28;20254;-76
2020/12/04 00:40:24;;;;;;;18.17;11.83;;;;;;;-0.96;76.48;93070.47;5051170;28;20180;-76
2020/12/04 00:42:49;;;;;;;16.77;11.83;;;;;;;-0.94;76.10;93072.88;5050672;28;20195;-76
2020/12/04 00:45:15;;;;;;;14.43;10.40;;;;;;;-0.93;75.97;93064.31;5051812;28;20659;-76
2020/12/04 00:47:40;;;;;;;14.93;11.10;;;;;;;-0.86;75.45;93068.69;5046653;28;20552;-76
2020/12/04 00:50:06;;;;;;;16.20;10.30;;;;;;;-0.89;75.49;93068.16;5051484;28;20242;-76
2020/12/04 00:52:31;;;;;;;14.80;11.20;;;;;;;-0.88;75.44;93068.06;5066833;28;20216;-76
2020/12/04 00:54:56;;;;;;;14.47;11.07;;;;;;;-0.89;75.17;93058.78;5050410;28;20227;-77
2020/12/04 00:57:22;;;;;;;15.87;10.97;;;;;;;-0.94;75.54;93052.50;5047735;28;20267;-76
2020/12/04 00:59:47;;;;;;;15.17;10.87;;;;;;;-0.93;75.93;93061.75;5046902;28;20185;-76
2020/12/04 01:02:12;;;;;;;13.77;9.70;;;;;;;-0.89;75.74;93058.78;5013471;28;20204;-76
2020/12/04 01:04:39;;;;;;;15.43;10.13;;;;;;;-0.76;74.81;93055.91;5031870;28;20216;-77
2020/12/04 01:07:04;;;;;;;15.83;10.43;;;;;;;-0.75;74.90;93047.34;5029854;28;20563;-77
2020/12/04 01:09:33;;;;;;;15.23;10.43;;;;;;;-0.81;75.01;93030.03;5048464;28;20212;-77
2020/12/04 01:11:59;;;;;;;13.50;10.20;;;;;;;-0.70;74.10;93023.97;5050219;28;20747;-76
2020/12/04 01:14:24;;;;;;;13.50;10.40;;;;;;;-0.72;74.50;93010.56;5049714;28;20202;-77
2020/12/04 01:16:49;;;;;;;15.87;9.60;;;;;;;-0.72;74.18;93008.00;5033646;28;20250;-76
2020/12/04 01:19:15;;;;;;;13.17;9.70;;;;;;;-0.68;74.00;93028.00;5031864;28;20726;-76
2020/12/04 01:21:40;;;;;;;14.03;10.00;;;;;;;-0.66;73.53;93021.00;5033499;28;20542;-76
2020/12/04 01:24:05;;;;;;;14.17;9.80;;;;;;;-0.66;73.66;93021.00;5033155;28;20202;-76
2020/12/04 01:26:31;;;;;;;13.53;9.50;;;;;;;-0.74;74.67;93027.75;5050139;28;20272;-76
2020/12/04 01:28:56;;;;;;;11.73;9.03;;;;;;;-0.65;73.83;93027.69;5048669;28;20316;-77
2020/12/04 01:31:21;;;;;;;14.83;9.80;;;;;;;-0.64;73.66;93014.00;5033250;28;20551;-76
2020/12/04 01:33:46;;;;;;;13.73;9.90;;;;;;;-0.60;73.27;93017.88;5032943;28;20216;-76
2020/12/04 01:36:14;;;;;;;13.00;9.27;;;;;;;-0.62;73.07;93006.22;5033438;28;20189;-76
2020/12/04 01:38:39;;;;;;;12.97;9.37;;;;;;;-0.58;73.17;93010.09;5049687;28;20275;-76
2020/12/04 01:41:05;;;;;;;13.23;9.67;;;;;;;-0.57;73.11;93019.34;5044173;28;20265;-76
2020/12/04 01:43:30;;;;;;;13.07;9.47;;;;;;;-0.50;72.12;93010.19;5048595;28;20238;-76
2020/12/04 01:45:56;;;;;;;11.77;8.40;;;;;;;-0.52;72.32;93006.19;5050220;28;20259;-77
2020/12/04 01:48:22;;;;;;;14.57;9.40;;;;;;;-0.54;72.27;93011.41;5049438;28;20188;-76
2020/12/04 01:50:50;;;;;;;13.17;8.63;;;;;;;-0.47;71.87;93009.88;5032997;28;20196;-76
2020/12/04 01:53:16;;;;;;;11.97;8.90;;;;;;;-0.45;72.25;92995.25;5040943;28;20214;-77
2020/12/04 01:55:41;;;;;;;11.43;8.20;;;;;;;-0.43;71.42;93001.03;5049825;28;20640;-76
2020/12/04 01:58:10;;;;;;;12.90;8.73;;;;;;;-0.39;71.34;92996.44;5051646;28;20213;-76
2020/12/04 02:00:36;;;;;;;11.60;7.93;;;;;;;-0.33;70.80;92993.31;5070083;28;20177;-76
2020/12/04 02:03:01;;;;;;;11.20;8.20;;;;;;;-0.34;70.76;92995.06;5067042;28;20265;-76
2020/12/04 02:05:27;;;;;;;12.57;8.77;;;;;;;-0.31;70.65;92988.84;5071348;28;20212;-75
2020/12/04 02:07:52;;;;;;;11.13;8.03;;;;;;;-0.36;71.06;92991.03;5054371;28;20229;-76
2020/12/04 02:10:29;;;;;;;9.73;7.20;;;;;;;-0.36;71.21;92986.72;5034628;28;20174;-76
2020/12/04 02:12:55;;;;;;;10.10;7.70;;;;;;;-0.33;71.11;92971.16;5049696;28;20228;-76
2020/12/04 02:15:21;;;;;;;13.73;8.43;;;;;;;-0.42;71.46;92979.69;5052648;28;20269;-76
2020/12/04 02:17:53;;;;;;;13.03;9.00;;;;;;;-0.34;71.16;92977.22;5036439;28;20177;-76
2020/12/04 02:20:18;;;;;;;12.10;8.30;;;;;;;-0.31;70.89;92969.25;5069362;28;20170;-76
2020/12/04 02:22:44;;;;;;;13.70;8.53;;;;;;;-0.41;71.30;92971.06;5054294;28;20189;-76
2020/12/04 02:25:09;;;;;;;10.10;7.60;;;;;;;-0.42;71.40;92973.78;5046282;28;20182;-76
2020/12/04 02:27:43;;;;;;;11.53;8.70;;;;;;;-0.33;70.76;92975.47;5053063;28;20177;-76
2020/12/04 02:30:09;;;;;;;13.33;8.40;;;;;;;-0.42;71.79;92973.78;5052431;28;20185;-76
2020/12/04 02:32:35;;;;;;;11.70;7.53;;;;;;;-0.34;71.49;92974.66;5052822;28;20244;-76
2020/12/04 02:35:00;;;;;;;11.87;8.00;;;;;;;-0.41;71.46;92996.56;5051518;28;20216;-76
2020/12/04 02:37:28;;;;;;;10.47;7.80;;;;;;;-0.26;70.48;92983.34;5032665;28;20236;-76
2020/12/04 02:39:54;;;;;;;11.97;8.60;;;;;;;-0.21;70.67;93001.53;5032491;28;20204;-76
2020/12/04 02:42:19;;;;;;;11.27;7.60;;;;;;;-0.28;70.47;92979.16;5032788;28;20191;-76
2020/12/04 02:44:44;;;;;;;9.50;7.47;;;;;;;-0.23;70.81;92990.69;5032078;28;20178;-76
2020/12/04 02:47:09;;;;;;;11.07;7.47;;;;;;;-0.20;70.10;92981.00;5049166;28;20201;-76
2020/12/04 02:49:35;;;;;;;9.90;6.53;;;;;;;-0.21;71.09;92986.25;5049209;28;20217;-76
2020/12/04 02:52:00;;;;;;;11.27;7.37;;;;;;;-0.22;71.02;92998.19;5032133;28;20206;-76
2020/12/04 02:54:26;;;;;;;9.87;6.90;;;;;;;-0.10;69.50;92989.38;5033761;28;20178;-76
2020/12/04 02:56:52;;;;;;;10.30;7.10;;;;;;;-0.13;70.37;92986.31;5038749;28;20200;-76
2020/12/04 02:59:17;;;;;;;8.87;6.40;;;;;;;-0.18;70.64;92985.94;5053004;28;20182;-76
2020/12/04 03:01:42;;;;;;;9.20;6.90;;;;;;;-0.04;69.89;92980.34;5051860;28;20264;-76
2020/12/04 03:04:08;;;;;;;7.37;5.90;;;;;;;-0.12;70.37;92972.59;5052526;28;20555;-76
2020/12/04 03:06:33;;;;;;;9.03;6.67;;;;;;;-0.05;69.35;92971.09;5050168;28;20185;-76
2020/12/04 03:09:00;;;;;;;9.13;6.60;;;;;;;-0.10;69.90;92973.25;5052118;28;20204;-76
2020/12/04 03:11:25;;;;;;;6.87;5.20;;;;;;;0.01;69.18;92988.38;5052252;28;20166;-76
2020/12/04 03:13:51;;;;;;;8.13;6.30;;;;;;;0.08;68.87;92983.44;5051801;28;20220;-76
2020/12/04 03:16:16;;;;;;;10.33;6.13;;;;;;;0.05;69.61;92984.56;5052168;28;20197;-76
2020/12/04 03:18:42;;;;;;;8.77;6.10;;;;;;;-0.01;69.28;92985.94;5063466;28;20185;-76
2020/12/04 03:21:07;;;;;;;8.07;5.90;;;;;;;0.13;68.59;92988.94;5052960;28;20236;-76
2020/12/04 03:23:32;;;;;;;6.70;5.23;;;;;;;0.19;68.80;92970.47;5053002;28;20192;-76
2020/12/04 03:25:58;;;;;;;8.33;6.00;;;;;;;0.23;68.09;92977.69;5052052;28;20517;-76
2020/12/04 03:28:23;;;;;;;8.73;5.70;;;;;;;0.23;68.75;92959.81;5049815;28;20542;-76
2020/12/04 03:30:48;;;;;;;7.30;5.50;;;;;;;0.16;68.79;92971.56;5034782;28;20543;-76
2020/12/04 03:33:14;;;;;;;7.00;5.30;;;;;;;0.18;68.76;92958.69;5052629;28;20677;-76
2020/12/04 03:35:39;;;;;;;7.30;5.40;;;;;;;0.17;68.83;92972.34;5051842;28;20177;-76
2020/12/04 03:38:04;;;;;;;7.20;5.07;;;;;;;0.28;67.67;92955.06;5050850;28;20224;-75
2020/12/04 03:40:30;;;;;;;6.87;5.33;;;;;;;0.37;67.73;92957.69;5045238;28;20197;-76
2020/12/04 03:42:55;;;;;;;6.73;5.03;;;;;;;0.43;67.23;92947.66;5051540;28;20755;-76
2020/12/04 03:45:20;;;;;;;7.73;5.10;;;;;;;0.47;66.76;92940.50;5051206;28;20178;-76
2020/12/04 03:47:46;;;;;;;5.70;4.70;;;;;;;0.39;67.55;92971.09;5051503;28;20276;-76
2020/12/04 03:50:11;;;;;;;6.30;5.13;;;;;;;0.42;67.41;92963.94;5046788;28;20186;-76
2020/12/04 03:52:36;;;;;;;5.73;4.60;;;;;;;0.46;67.10;92955.03;5034665;28;20198;-76
2020/12/04 03:55:02;;;;;;;7.03;5.13;;;;;;;0.38;68.04;92975.41;5051325;28;20170;-76
2020/12/04 03:57:27;;;;;;;6.50;5.17;;;;;;;0.47;67.30;92954.06;5051373;28;20177;-76
2020/12/04 03:59:52;;;;;;;6.63;4.83;;;;;;;0.51;67.58;92983.44;5047470;28;20182;-76
2020/12/04 04:02:18;;;;;;;7.07;5.33;;;;;;;0.49;67.26;92972.59;5050434;28;20189;-76
2020/12/04 04:04:43;;;;;;;6.93;5.30;;;;;;;0.40;67.27;92983.72;5051300;28;20550;-76
2020/12/04 04:07:08;;;;;;;7.87;6.03;;;;;;;0.46;67.03;92972.09;5051997;28;20181;-76
2020/12/04 04:09:33;;;;;;;7.97;5.73;;;;;;;0.33;67.71;92972.47;5052115;28;20719;-76
2020/12/04 04:11:59;;;;;;;9.33;6.40;;;;;;;0.31;68.41;92976.16;5048518;28;20216;-76
2020/12/04 04:14:24;;;;;;;7.73;6.03;;;;;;;0.30;68.58;92980.44;5050908;28;20219;-76
2020/12/04 04:16:49;;;;;;;11.37;7.00;;;;;;;0.37;68.12;92978.09;5050835;28;20177;-76
2020/12/04 04:19:15;;;;;;;9.63;6.40;;;;;;;0.28;68.81;92972.94;5034056;28;20180;-76
2020/12/04 04:21:40;;;;;;;9.53;6.40;;;;;;;0.35;68.19;92965.47;5047872;28;20182;-76
2020/12/04 04:24:07;;;;;;;9.47;6.77;;;;;;;0.32;67.91;92970.09;5050632;28;20218;-76
2020/12/04 04:26:32;;;;;;;8.63;6.43;;;;;;;0.27;68.08;92973.91;5050512;28;20176;-76
2020/12/04 04:28:57;;;;;;;9.07;6.90;;;;;;;0.36;68.20;92968.84;5050468;28;20182;-76
2020/12/04 04:31:23;;;;;;;10.77;6.70;;;;;;;0.29;68.59;92971.19;5050832;28;20173;-76
2020/12/04 04:33:48;;;;;;;10.67;6.77;;;;;;;0.28;68.51;92990.00;5043092;28;20255;-76
2020/12/04 04:36:13;;;;;;;7.77;6.33;;;;;;;0.38;68.16;92983.06;5031014;28;20189;-76
2020/12/04 04:38:38;;;;;;;7.57;6.07;;;;;;;0.33;68.67;92989.56;5051186;28;20174;-76
2020/12/04 04:41:04;;;;;;;10.03;6.73;;;;;;;0.31;69.23;92981.25;5051795;28;20177;-75
2020/12/04 04:43:29;;;;;;;8.57;6.50;;;;;;;0.34;69.28;92978.38;5047550;28;20708;-76
2020/12/04 04:46:04;;;;;;;9.17;5.93;;;;;;;0.32;70.30;92980.28;5033829;28;20260;-76
2020/12/04 04:48:31;;;;;;;8.30;6.27;;;;;;;0.30;70.70;92960.03;5033378;28;20181;-76
2020/12/04 04:50:57;;;;;;;8.83;6.03;;;;;;;0.34;70.93;92952.84;5033855;28;20549;-76
2020/12/04 04:53:23;;;;;;;9.23;6.37;;;;;;;0.36;71.16;92935.66;5046137;28;20221;-76
2020/12/04 04:55:51;;;;;;;9.00;6.00;;;;;;;0.38;71.38;92942.22;5066885;28;20192;-76
2020/12/04 04:58:16;;;;;;;8.40;6.17;;;;;;;0.33;71.30;92946.16;5033756;28;20269;-76
2020/12/04 05:00:41;;;;;;;7.83;5.70;;;;;;;0.27;71.44;92948.38;5049630;28;20200;-76
2020/12/04 05:03:08;;;;;;;8.90;6.33;;;;;;;0.31;71.62;92942.97;5050175;28;20565;-76
2020/12/04 05:05:42;;;;;;;8.10;5.70;;;;;;;0.22;72.55;92965.06;5046386;28;20231;-76
2020/12/04 05:08:17;;;;;;;9.13;5.87;;;;;;;0.27;72.21;92968.00;5033968;28;20203;-76
2020/12/04 05:10:43;;;;;;;9.83;7.13;;;;;;;0.36;71.35;92962.00;5049682;28;20185;-76
2020/12/04 05:13:09;;;;;;;9.53;7.03;;;;;;;0.34;71.30;92961.31;5049964;28;20217;-76
2020/12/04 05:15:34;;;;;;;8.83;6.77;;;;;;;0.26;71.57;92956.94;5046592;28;20178;-75
2020/12/04 05:18:08;;;;;;;10.63;6.43;;;;;;;0.28;71.80;92956.81;5056182;28;20181;-75
2020/12/04 05:20:35;;;;;;;10.30;6.67;;;;;;;0.24;72.22;92966.50;5049088;28;20299;-76
2020/12/04 05:23:01;;;;;;;9.70;6.30;;;;;;;0.15;72.15;92964.84;5050041;28;20188;-76
2020/12/04 05:25:30;;;;;;;9.13;6.33;;;;;;;0.15;72.29;92969.97;5046300;28;20178;-76
2020/12/04 05:28:06;;;;;;;9.33;6.80;;;;;;;0.21;72.10;92963.47;5049608;28;20181;-76
2020/12/04 05:30:31;;;;;;;10.23;6.50;;;;;;;0.14;71.69;92955.59;5050028;28;20653;-76
2020/12/04 05:33:00;;;;;;;10.20;6.30;;;;;;;0.09;71.68;92957.81;5051673;28;20216;-76
2020/12/04 05:35:26;;;;;;;8.97;6.53;;;;;;;0.12;71.34;92949.84;5053985;28;20177;-76
2020/12/04 05:38:08;;;;;;;10.73;7.70;;;;;;;0.08;71.58;92938.31;5050249;28;20318;-76
2020/12/04 05:40:35;;;;;;;9.37;6.67;;;;;;;0.10;71.46;92936.44;5070402;28;20182;-76
2020/12/04 05:43:00;;;;;;;8.83;6.57;;;;;;;0.03;71.22;92937.19;5053785;28;20275;-76
2020/12/04 05:45:25;;;;;;;8.53;6.90;;;;;;;0.12;71.05;92923.53;5053798;28;20684;-76
2020/12/04 05:47:51;;;;;;;9.47;7.20;;;;;;;0.06;70.93;92922.38;5045249;28;20546;-77
2020/12/04 05:50:16;;;;;;;7.03;5.43;;;;;;;0.10;70.77;92926.25;5053023;28;20672;-76
2020/12/04 05:52:42;;;;;;;8.03;6.10;;;;;;;0.11;70.07;92921.94;5036468;28;20218;-76
2020/12/04 05:55:09;;;;;;;7.80;6.00;;;;;;;0.18;70.04;92928.06;5053737;28;20548;-76
2020/12/04 05:57:43;;;;;;;7.37;5.63;;;;;;;0.14;70.57;92932.63;5050554;28;20224;-76
2020/12/04 06:00:08;;;;;;;7.07;5.67;;;;;;;0.21;70.14;92933.66;5053214;28;20178;-77
2020/12/04 06:02:33;;;;;;;9.23;5.83;;;;;;;0.21;70.60;92931.09;5053266;28;20574;-76
2020/12/04 06:04:59;;;;;;;7.43;5.47;;;;;;;0.34;69.27;92929.88;5053639;28;20551;-76
2020/12/04 06:07:27;;;;;;;9.10;5.97;;;;;;;0.28;70.20;92942.31;5053034;28;20178;-76
2020/12/04 06:09:59;;;;;;;9.43;6.63;;;;;;;0.32;69.21;92935.16;5046687;28;20258;-77
2020/12/04 06:12:24;;;;;;;8.17;5.63;;;;;;;0.29;69.01;92927.78;5046480;28;20233;-77
2020/12/04 06:14:50;;;;;;;8.20;5.93;;;;;;;0.35;69.36;92923.81;5048953;28;20181;-77
2020/12/04 06:17:16;;;;;;;7.03;5.33;;;;;;;0.33;68.98;92923.19;5023963;28;20186;-77
2020/12/04 06:19:42;;;;;;;8.20;5.63;;;;;;;0.34;69.11;92912.81;5041085;28;20189;-77
2020/12/04 06:22:15;;;;;;;6.70;4.93;;;;;;;0.41;69.53;92920.69;5049352;28;20572;-77
2020/12/04 06:24:52;;;;;;;7.03;4.70;;;;;;;0.36;69.64;92913.50;5046573;28;20906;-76
2020/12/04 06:27:48;;;;;;;6.97;5.03;;;;;;;0.40;69.48;92917.31;5052376;28;20645;-77
2020/12/04 06:30:16;;;;;;;7.57;4.77;;;;;;;0.45;69.87;92915.13;5058506;28;20600;-77
2020/12/04 06:32:45;;;;;;;7.17;4.97;;;;;;;0.44;69.74;92913.53;5046861;28;20236;-77
2020/12/04 06:35:11;;;;;;;6.63;4.93;;;;;;;0.39;70.21;92917.47;5041781;28;20210;-78
2020/12/04 06:37:44;;;;;;;8.87;5.00;;;;;;;0.54;69.59;92919.34;5044469;28;20668;-78
2020/12/04 06:40:22;;;;;;;6.70;4.80;;;;;;;0.49;69.54;92925.84;5064180;28;20185;-77
2020/12/04 06:42:47;;;;;;;6.70;5.00;;;;;;;0.44;69.86;92933.97;5049474;28;20288;-77
2020/12/04 06:45:12;;;;;;;6.40;4.80;;;;;;;0.40;69.59;92932.66;5043172;28;20261;-77
2020/12/04 06:47:38;;;;;;;7.37;5.03;;;;;;;0.39;69.96;92953.22;5046610;28;20191;-78
2020/12/04 06:50:03;;;;;;;8.43;5.27;;;;;;;0.36;69.54;92946.69;5028727;28;20178;-76
2020/12/04 06:52:28;;;;;;;8.13;5.73;;;;;;;0.32;69.93;92931.78;5045265;28;20213;-77
2020/12/04 06:54:55;;;;;;;8.20;5.77;;;;;;;0.35;69.91;92927.19;5050132;28;20182;-76
2020/12/04 06:57:22;;;;;;;7.70;5.87;;;;;;;0.38;69.72;92928.66;5032941;28;20231;-77
2020/12/04 06:59:47;;;;;;;8.53;5.67;;;;;;;0.36;69.79;92930.56;5037730;28;20224;-76
2020/12/04 07:02:14;;;;;;;8.27;5.63;;;;;;;0.36;69.99;92918.59;5042581;28;20659;-79
2020/12/04 07:04:50;;;;;;;7.57;5.40;;;;;;;0.45;70.17;92919.44;5025700;28;20230;-78
2020/12/04 07:07:16;;;;;;;7.50;5.60;;;;;;;0.40;70.31;92922.44;5034465;28;20201;-78
2020/12/04 07:09:42;;;;;;;6.17;4.70;;;;;;;0.53;69.74;92927.13;5042771;28;20178;-78
2020/12/04 07:12:10;;;;;;;5.70;4.33;;;;;;;0.64;69.89;92923.53;5023466;28;20585;-78
2020/12/04 07:14:35;;;;;;;7.13;4.83;;;;;;;0.71;69.30;92937.31;5036386;28;20189;-77
2020/12/04 07:17:01;;;;;;;6.97;4.93;;;;;;;0.80;68.97;92939.75;5044016;28;20174;-78
2020/12/04 07:19:26;;;;;;;6.10;4.67;;;;;;;0.72;69.83;92942.25;5029683;28;20198;-77
2020/12/04 07:21:52;;;;;;;6.80;4.83;;;;;;;0.76;69.42;92955.50;5042723;28;20185;-77
2020/12/04 07:24:18;;;;;;;8.03;5.33;;;;;;;0.74;69.95;92942.09;5023970;28;20197;-77
2020/12/04 07:26:50;;;;;;;9.33;5.87;;;;;;;0.67;70.07;92954.66;5038725;28;20284;-78
2020/12/04 07:29:15;;;;;;;7.33;6.10;;;;;;;0.68;69.67;92940.94;5028385;28;20220;-78
2020/12/04 07:31:44;;;;;;;9.17;6.40;;;;;;;0.60;70.19;92943.44;5032941;28;20240;-77
2020/12/04 07:34:09;;;;;;;7.93;6.07;;;;;;;0.54;70.27;92944.06;5037442;28;20305;-76
2020/12/04 07:36:35;;;;;;;7.53;5.73;;;;;;;0.55;69.67;92945.66;5033121;28;20269;-76
2020/12/04 07:39:01;;;;;;;7.30;5.53;;;;;;;0.60;70.17;92950.31;5038277;28;20603;-77
2020/12/04 07:41:41;;;;;;;9.63;5.73;;;;;;;0.61;70.37;92951.91;5017362;28;20188;-77
2020/12/04 07:44:07;;;;;;;7.90;5.70;;;;;;;0.61;70.41;92939.94;5045662;28;20197;-76
2020/12/04 07:46:35;;;;;;;7.77;5.63;;;;;;;0.61;70.83;92931.47;5040823;28;20177;-77
2020/12/04 07:49:06;;;;;;;6.73;4.97;;;;;;;0.69;70.95;92923.84;5021188;28;20181;-77
2020/12/04 07:51:33;;;;;;;7.27;5.43;;;;;;;0.78;70.78;92917.84;5050485;28;20201;-77
2020/12/04 07:53:59;;;;;;;6.37;5.10;;;;;;;0.78;70.36;92917.84;5032791;28;20202;-77
2020/12/04 07:56:26;;;;;;;6.40;5.00;;;;;;;0.90;70.55;92908.97;5038983;28;20192;-76
2020/12/04 07:59:11;;;;;;;5.73;4.70;;;;;;;1.04;70.38;92920.34;5043762;28;20178;-75
2020/12/04 08:01:41;;;;;;;6.63;4.63;;;;;;;1.16;70.57;92931.09;5044332;28;20191;-76
2020/12/04 08:04:08;;;;;;;6.87;5.10;;;;;;;1.16;70.34;92931.09;5051113;28;20263;-75
2020/12/04 08:06:33;;;;;;;6.57;4.87;;;;;;;1.16;70.39;92924.22;5024607;28;20625;-76
2020/12/04 08:09:10;;;;;;;7.67;5.17;;;;;;;1.17;70.19;92925.81;5040091;28;20214;-76
2020/12/04 08:11:37;;;;;;;9.30;7.00;;;;;;;1.08;70.23;92927.56;5038840;28;20182;-75
2020/12/04 08:14:03;;;;;;;9.23;6.40;;;;;;;1.02;70.63;92919.69;5022698;28;20201;-76
2020/12/04 08:16:30;;;;;;;9.40;6.53;;;;;;;1.07;70.13;92920.06;5040431;28;20170;-76
2020/12/04 08:19:02;;;;;;;9.83;6.63;;;;;;;1.05;70.14;92896.38;5034639;28;20190;-76
2020/12/04 08:21:28;;;;;;;8.60;5.73;;;;;;;1.13;70.71;92884.41;5036370;28;20196;-75
2020/12/04 08:23:54;;;;;;;5.47;4.50;;;;;;;1.15;71.38;92889.41;5046300;28;20197;-76
2020/12/04 08:26:19;;;;;;;9.03;6.07;;;;;;;1.21;71.44;92881.09;5047291;28;20189;-76
2020/12/04 08:28:54;;;;;;;6.37;5.50;;;;;;;1.38;71.52;92872.50;5039091;28;20573;-76
2020/12/04 08:31:26;;;;;;;21.43;13.40;;;;;;;1.60;71.23;92870.31;5044466;28;20182;-75
2020/12/04 08:33:52;;;;;;;31.60;20.47;;;;;;;1.73;71.08;92868.06;5042176;28;20306;-76
2020/12/04 08:36:18;;;;;;;23.43;15.30;;;;;;;1.79;71.75;92875.09;5021272;28;20293;-76
2020/12/04 08:38:52;;;;;;;20.73;14.63;;;;;;;1.83;72.14;92870.44;5056201;28;20185;-76
2020/12/04 08:41:19;;;;;;;9.53;7.73;;;;;;;1.89;72.19;92862.13;5041816;28;20247;-75
2020/12/04 08:43:45;;;;;;;8.13;3.20;;;;;;;2.01;71.51;92867.72;5048403;28;20249;-74
2020/12/04 08:46:11;;;;;;;3.10;2.53;;;;;;;2.03;72.04;92874.28;5025561;28;20839;-75
2020/12/04 08:48:37;;;;;;;5.67;3.93;;;;;;;1.94;70.66;92883.75;5041044;28;20177;-75
2020/12/04 08:51:05;;;;;;;7.03;4.97;;;;;;;1.87;70.22;92879.41;5036981;28;20197;-75
2020/12/04 08:53:30;;;;;;;6.73;4.97;;;;;;;1.77;70.41;92882.16;5039764;28;20578;-75
2020/12/04 08:55:57;;;;;;;8.33;5.20;;;;;;;1.74;70.50;92877.31;5037960;28;20179;-75
2020/12/04 08:58:24;;;;;;;6.67;4.67;;;;;;;1.68;70.08;92876.22;5045395;28;20316;-74
2020/12/04 09:00:50;;;;;;;7.73;4.67;;;;;;;1.66;69.95;92877.31;5014562;28;20651;-75
2020/12/04 09:03:17;;;;;;;6.70;4.33;;;;;;;1.60;69.92;92877.97;5030169;28;20209;-75
2020/12/04 09:05:42;;;;;;;7.37;4.57;;;;;;;1.58;69.65;92874.75;5046510;28;20664;-75
2020/12/04 09:08:08;;;;;;;5.57;4.40;;;;;;;1.54;69.54;92881.94;5038870;28;20186;-76
2020/12/04 09:10:34;;;;;;;5.60;4.70;;;;;;;1.46;69.63;92906.72;5027430;28;20711;-75
2020/12/04 09:12:59;;;;;;;6.07;5.00;;;;;;;1.53;69.97;92898.25;5020404;28;20206;-75
2020/12/04 09:15:26;;;;;;;5.90;4.07;;;;;;;1.56;70.55;92903.06;5041093;28;20197;-75
2020/12/04 09:17:51;;;;;;;4.77;3.97;;;;;;;1.58;69.80;92923.34;5039634;28;20197;-77
2020/12/04 09:20:17;;;;;;;5.67;3.90;;;;;;;1.62;68.98;92929.78;5024704;28;20209;-75
2020/12/04 09:22:43;;;;;;;7.03;5.80;;;;;;;1.58;67.43;92943.81;5034066;28;20742;-76
2020/12/04 09:25:11;;;;;;;8.43;7.53;;;;;;;1.65;67.87;92945.59;5048132;28;20205;-75
2020/12/04 09:27:37;;;;;;;6.53;4.93;;;;;;;1.70;66.69;92945.13;5040862;28;20673;-75
2020/12/04 09:30:06;;;;;;;6.07;4.60;;;;;;;1.75;67.05;92958.25;5040412;28;20229;-76
2020/12/04 09:32:31;;;;;;;6.57;4.80;;;;;;;1.70;67.25;92961.28;5017536;28;20222;-75
2020/12/04 09:34:57;;;;;;;4.83;4.27;;;;;;;1.70;67.61;92975.84;5037261;28;20213;-76
2020/12/04 09:37:23;;;;;;;5.97;4.37;;;;;;;1.73;66.13;92962.72;5037164;28;20182;-75
2020/12/04 09:39:57;;;;;;;5.70;4.60;;;;;;;1.68;66.88;92937.63;5032222;28;20554;-75
2020/12/04 09:42:24;;;;;;;6.07;4.03;;;;;;;1.77;66.84;92917.13;5044445;28;20279;-76
2020/12/04 09:44:50;;;;;;;6.07;4.80;;;;;;;1.76;66.58;92910.41;5027298;28;20190;-76
2020/12/04 09:47:16;;;;;;;6.57;3.87;;;;;;;1.79;66.46;92908.38;5042855;28;20265;-75
2020/12/04 09:49:43;;;;;;;5.00;4.10;;;;;;;1.75;66.64;92893.47;5030820;28;20638;-75
2020/12/04 09:52:09;;;;;;;6.03;4.70;;;;;;;1.79;67.07;92894.78;5023658;28;20211;-75
2020/12/04 09:54:36;;;;;;;6.00;4.10;;;;;;;1.77;66.80;92894.94;5035721;28;20213;-75
2020/12/04 09:57:06;;;;;;;5.73;4.87;;;;;;;1.77;67.17;92894.94;5048123;28;20182;-75
2020/12/04 09:59:32;;;;;;;5.03;4.37;;;;;;;1.74;67.40;92892.69;5040134;28;20609;-76
2020/12/04 10:01:57;;;;;;;5.57;4.47;;;;;;;1.79;66.93;92895.56;5037525;28;20186;-75
2020/12/04 10:04:26;;;;;;;6.97;4.13;;;;;;;1.74;66.33;92897.78;5022211;28;20241;-75
2020/12/04 10:06:52;;;;;;;4.87;4.00;;;;;;;1.76;66.43;92903.53;5019864;28;20186;-76
2020/12/04 10:09:18;;;;;;;5.27;4.30;;;;;;;1.79;66.47;92915.25;5047512;28;20303;-76
2020/12/04 10:11:43;;;;;;;6.27;4.43;;;;;;;1.74;66.62;92913.16;5039285;28;20205;-77
2020/12/04 10:14:09;;;;;;;4.93;3.87;;;;;;;1.84;67.56;92943.69;5022142;28;20218;-75
2020/12/04 10:16:34;;;;;;;5.13;3.63;;;;;;;1.99;68.02;92949.78;5037280;28;20190;-75
2020/12/04 10:18:59;;;;;;;4.33;3.50;;;;;;;1.96;68.57;92930.44;5038413;28;20186;-76
2020/12/04 10:21:25;;;;;;;5.00;3.73;;;;;;;2.00;68.54;92938.59;5040590;28;20186;-76
2020/12/04 10:23:51;;;;;;;4.83;3.40;;;;;;;2.04;68.93;92939.88;5025389;28;20198;-76
2020/12/04 10:26:17;;;;;;;3.17;2.70;;;;;;;2.09;68.62;92937.63;5044233;28;20182;-76
2020/12/04 10:28:42;;;;;;;6.83;3.30;;;;;;;2.08;69.19;92950.59;5044235;28;20272;-76
2020/12/04 10:31:07;;;;;;;18.60;6.50;;;;;;;2.12;68.44;92928.81;5044250;28;20225;-75
2020/12/04 10:33:33;;;;;;;8.60;3.47;;;;;;;2.16;68.61;92938.59;5053345;28;20217;-75
2020/12/04 10:36:01;;;;;;;7.83;5.83;;;;;;;2.18;69.17;92920.50;5042585;28;20200;-76
2020/12/04 10:38:26;;;;;;;5.80;3.87;;;;;;;2.22;70.50;92907.25;5043245;28;20197;-75
2020/12/04 10:40:51;;;;;;;5.20;3.10;;;;;;;2.29;71.76;92897.13;5044259;28;20186;-76
2020/12/04 10:43:17;;;;;;;4.40;3.17;;;;;;;2.37;71.66;92906.56;5040885;28;20205;-75
2020/12/04 10:45:42;;;;;;;5.43;4.47;;;;;;;2.42;72.23;92896.63;5042783;28;21441;-75
2020/12/04 10:48:07;;;;;;;2.83;2.30;;;;;;;2.50;72.42;92887.19;5047320;28;20643;-76
2020/12/04 10:50:32;;;;;;;4.97;3.27;;;;;;;2.62;72.42;92902.19;5050046;28;20181;-75
2020/12/04 10:52:58;;;;;;;4.77;3.37;;;;;;;2.50;69.39;92906.88;5049781;28;20256;-76
2020/12/04 10:55:23;;;;;;;4.47;3.50;;;;;;;2.47;68.94;92899.50;5038403;28;20277;-75
2020/12/04 10:57:48;;;;;;;3.53;2.90;;;;;;;2.31;69.55;92889.31;5048106;28;20191;-75
2020/12/04 11:00:14;;;;;;;4.33;3.73;;;;;;;2.30;69.54;92885.94;5048392;28;20239;-75
2020/12/04 11:02:41;;;;;;;5.27;3.50;;;;;;;2.31;70.12;92886.75;5047198;28;20628;-76
2020/12/04 11:07:50;;;;;;;3.87;3.30;;;;;;;2.28;70.84;92880.97;5041124;28;20196;-77
2020/12/04 11:10:15;;;;;;;4.43;3.27;;;;;;;2.28;70.74;92886.09;5043612;28;20602;-77
2020/12/04 11:12:40;;;;;;;7.90;3.30;;;;;;;2.42;71.00;92897.44;5051074;28;20210;-76
2020/12/04 11:15:07;;;;;;;4.80;4.00;;;;;;;2.35;71.28;92885.44;5038237;28;20199;-75
2020/12/04 11:17:33;;;;;;;5.47;3.90;;;;;;;2.34;71.84;92892.31;5064798;28;20216;-76
2020/12/04 11:19:58;;;;;;;7.23;5.20;;;;;;;2.41;71.42;92895.84;5056901;28;20205;-75
2020/12/04 11:22:23;;;;;;;6.20;4.20;;;;;;;2.50;71.70;92899.19;5048669;28;20205;-76
2020/12/04 11:24:48;;;;;;;3.87;2.80;;;;;;;2.45;71.14;92897.09;5036759;28;20201;-77
2020/12/04 11:27:14;;;;;;;3.07;2.47;;;;;;;2.52;71.54;92889.56;5038546;28;20233;-75
2020/12/04 11:29:39;;;;;;;15.93;7.17;;;;;;;2.63;69.48;92878.97;5032047;28;20552;-76
2020/12/04 11:32:05;;;;;;;13.17;7.77;;;;;;;2.51;69.41;92877.72;5021344;28;20208;-76
2020/12/04 11:34:30;;;;;;;24.90;14.27;;;;;;;2.38;68.93;92860.28;5048995;28;20178;-76
2020/12/04 11:36:55;;;;;;;8.83;6.03;;;;;;;2.36;69.91;92851.97;5050808;28;20193;-76